sensor_id;sensor_type;location;lat;lon;timestamp;P1;durP1;ratioP1;P2;durP2;ratioP2
12224;SDS011;6175;50.956;11.064;2023-08-06T00:01:44;2.10;;;2.00;;
12224;SDS011;6175;50.956;11.064;2023-08-06T00:04:11;3.00;;;2.25;;
12224;SDS011;6175;50.956;11.064;2023-08-06T00:06:38;2.40;;;2.20;;
12224;SDS011;6175;50.956;11.064;2023-08-06T00:09:06;2.70;;;2.50;;
12224;SDS011;6175;50.956;11.064;2023-08-06T00:11:33;3.00;;;2.80;;
12224;SDS011;6175;50.956;11.064;2023-08-06T00:14:00;3.00;;;2.80;;
12224;SDS011;6175;50.956;11.064;2023-08-06T00:16:27;2.80;;;2.60;;
12224;SDS011;6175;50.956;11.064;2023-08-06T00:18:56;2.50;;;2.40;;
12224;SDS011;6175;50.956;11.064;2023-08-06T00:21:23;2.65;;;2.45;;
12224;SDS011;6175;50.956;11.064;2023-08-06T00:23:50;2.60;;;2.40;;
12224;SDS011;6175;50.956;11.064;2023-08-06T00:26:17;2.47;;;2.33;;
12224;SDS011;6175;50.956;11.064;2023-08-06T00:28:44;2.03;;;1.92;;
12224;SDS011;6175;50.956;11.064;2023-08-06T00:31:11;2.33;;;2.13;;
12224;SDS011;6175;50.956;11.064;2023-08-06T00:33:39;2.63;;;2.42;;
12224;SDS011;6175;50.956;11.064;2023-08-06T00:36:07;2.47;;;2.28;;
12224;SDS011;6175;50.956;11.064;2023-08-06T00:38:35;2.80;;;2.08;;
12224;SDS011;6175;50.956;11.064;2023-08-06T00:41:02;2.15;;;2.05;;
12224;SDS011;6175;50.956;11.064;2023-08-06T00:43:29;2.35;;;2.08;;
12224;SDS011;6175;50.956;11.064;2023-08-06T00:45:56;2.40;;;2.20;;
12224;SDS011;6175;50.956;11.064;2023-08-06T00:48:23;3.53;;;2.42;;
12224;SDS011;6175;50.956;11.064;2023-08-06T00:50:50;2.50;;;2.30;;
12224;SDS011;6175;50.956;11.064;2023-08-06T00:53:19;2.53;;;2.33;;
12224;SDS011;6175;50.956;11.064;2023-08-06T00:55:46;2.42;;;2.22;;
12224;SDS011;6175;50.956;11.064;2023-08-06T00:58:14;2.80;;;2.55;;
12224;SDS011;6175;50.956;11.064;2023-08-06T01:00:42;2.47;;;2.05;;
12224;SDS011;6175;50.956;11.064;2023-08-06T01:03:09;2.28;;;2.08;;
12224;SDS011;6175;50.956;11.064;2023-08-06T01:05:37;1.98;;;1.88;;
12224;SDS011;6175;50.956;11.064;2023-08-06T01:08:12;1.98;;;1.83;;
12224;SDS011;6175;50.956;11.064;2023-08-06T01:10:48;4.25;;;2.10;;
12224;SDS011;6175;50.956;11.064;2023-08-06T01:13:19;1.85;;;1.75;;
12224;SDS011;6175;50.956;11.064;2023-08-06T01:15:50;1.90;;;1.80;;
12224;SDS011;6175;50.956;11.064;2023-08-06T01:18:23;2.28;;;2.08;;
12224;SDS011;6175;50.956;11.064;2023-08-06T01:20:51;2.33;;;2.13;;
12224;SDS011;6175;50.956;11.064;2023-08-06T01:23:18;2.28;;;2.08;;
12224;SDS011;6175;50.956;11.064;2023-08-06T01:25:48;2.70;;;2.50;;
12224;SDS011;6175;50.956;11.064;2023-08-06T01:28:18;2.53;;;2.33;;
12224;SDS011;6175;50.956;11.064;2023-08-06T01:30:50;3.28;;;2.28;;
12224;SDS011;6175;50.956;11.064;2023-08-06T01:33:19;2.05;;;1.90;;
12224;SDS011;6175;50.956;11.064;2023-08-06T01:35:48;1.80;;;1.70;;
12224;SDS011;6175;50.956;11.064;2023-08-06T01:38:18;2.33;;;2.13;;
12224;SDS011;6175;50.956;11.064;2023-08-06T01:40:45;2.13;;;1.98;;
12224;SDS011;6175;50.956;11.064;2023-08-06T01:43:12;2.50;;;2.30;;
12224;SDS011;6175;50.956;11.064;2023-08-06T01:45:39;2.63;;;2.42;;
12224;SDS011;6175;50.956;11.064;2023-08-06T01:48:06;2.58;;;2.38;;
12224;SDS011;6175;50.956;11.064;2023-08-06T01:50:33;2.50;;;2.30;;
12224;SDS011;6175;50.956;11.064;2023-08-06T01:53:01;2.70;;;2.50;;
12224;SDS011;6175;50.956;11.064;2023-08-06T01:55:30;2.28;;;2.17;;
12224;SDS011;6175;50.956;11.064;2023-08-06T01:57:57;3.28;;;2.83;;
12224;SDS011;6175;50.956;11.064;2023-08-06T02:00:24;2.72;;;2.53;;
12224;SDS011;6175;50.956;11.064;2023-08-06T02:02:52;2.70;;;2.50;;
12224;SDS011;6175;50.956;11.064;2023-08-06T02:05:20;2.92;;;2.53;;
12224;SDS011;6175;50.956;11.064;2023-08-06T02:07:47;2.92;;;2.72;;
12224;SDS011;6175;50.956;11.064;2023-08-06T02:10:14;3.78;;;2.65;;
12224;SDS011;6175;50.956;11.064;2023-08-06T02:12:42;5.25;;;2.70;;
12224;SDS011;6175;50.956;11.064;2023-08-06T02:15:10;3.00;;;2.80;;
12224;SDS011;6175;50.956;11.064;2023-08-06T02:17:37;3.33;;;2.72;;
12224;SDS011;6175;50.956;11.064;2023-08-06T02:20:05;3.60;;;2.92;;
12224;SDS011;6175;50.956;11.064;2023-08-06T02:22:32;4.38;;;2.75;;
12224;SDS011;6175;50.956;11.064;2023-08-06T02:24:59;3.20;;;2.90;;
12224;SDS011;6175;50.956;11.064;2023-08-06T02:27:26;3.20;;;2.90;;
12224;SDS011;6175;50.956;11.064;2023-08-06T02:29:55;2.65;;;2.45;;
12224;SDS011;6175;50.956;11.064;2023-08-06T02:32:22;3.03;;;2.72;;
12224;SDS011;6175;50.956;11.064;2023-08-06T02:34:49;3.50;;;3.00;;
12224;SDS011;6175;50.956;11.064;2023-08-06T02:37:16;3.00;;;2.80;;
12224;SDS011;6175;50.956;11.064;2023-08-06T02:39:44;4.00;;;3.05;;
12224;SDS011;6175;50.956;11.064;2023-08-06T02:42:10;3.75;;;3.33;;
12224;SDS011;6175;50.956;11.064;2023-08-06T02:44:38;2.92;;;2.72;;
12224;SDS011;6175;50.956;11.064;2023-08-06T02:47:07;3.40;;;3.10;;
12224;SDS011;6175;50.956;11.064;2023-08-06T02:49:34;4.07;;;2.88;;
12224;SDS011;6175;50.956;11.064;2023-08-06T02:52:02;3.22;;;2.80;;
12224;SDS011;6175;50.956;11.064;2023-08-06T02:54:29;3.22;;;2.85;;
12224;SDS011;6175;50.956;11.064;2023-08-06T02:56:56;4.13;;;2.97;;
12224;SDS011;6175;50.956;11.064;2023-08-06T02:59:23;2.65;;;2.42;;
12224;SDS011;6175;50.956;11.064;2023-08-06T03:01:50;3.05;;;2.70;;
12224;SDS011;6175;50.956;11.064;2023-08-06T03:04:19;3.22;;;2.90;;
12224;SDS011;6175;50.956;11.064;2023-08-06T03:06:46;3.55;;;2.58;;
12224;SDS011;6175;50.956;11.064;2023-08-06T03:09:13;8.38;;;3.42;;
12224;SDS011;6175;50.956;11.064;2023-08-06T03:11:40;3.72;;;3.38;;
12224;SDS011;6175;50.956;11.064;2023-08-06T03:14:07;3.10;;;2.78;;
12224;SDS011;6175;50.956;11.064;2023-08-06T03:16:35;3.17;;;2.88;;
12224;SDS011;6175;50.956;11.064;2023-08-06T03:19:02;3.83;;;2.88;;
12224;SDS011;6175;50.956;11.064;2023-08-06T03:21:30;4.93;;;3.85;;
12224;SDS011;6175;50.956;11.064;2023-08-06T03:23:57;3.10;;;2.90;;
12224;SDS011;6175;50.956;11.064;2023-08-06T03:26:24;4.18;;;2.58;;
12224;SDS011;6175;50.956;11.064;2023-08-06T03:28:52;2.95;;;2.75;;
12224;SDS011;6175;50.956;11.064;2023-08-06T03:31:19;4.57;;;2.75;;
12224;SDS011;6175;50.956;11.064;2023-08-06T03:33:46;3.38;;;2.70;;
12224;SDS011;6175;50.956;11.064;2023-08-06T03:36:13;4.90;;;3.00;;
12224;SDS011;6175;50.956;11.064;2023-08-06T03:38:42;2.90;;;2.70;;
12224;SDS011;6175;50.956;11.064;2023-08-06T03:41:09;2.67;;;2.47;;
12224;SDS011;6175;50.956;11.064;2023-08-06T03:43:36;3.17;;;2.88;;
12224;SDS011;6175;50.956;11.064;2023-08-06T03:46:03;2.67;;;2.40;;
12224;SDS011;6175;50.956;11.064;2023-08-06T03:48:30;2.70;;;2.50;;
12224;SDS011;6175;50.956;11.064;2023-08-06T03:50:57;2.70;;;2.50;;
12224;SDS011;6175;50.956;11.064;2023-08-06T03:53:26;2.90;;;2.35;;
12224;SDS011;6175;50.956;11.064;2023-08-06T03:55:55;2.72;;;2.53;;
12224;SDS011;6175;50.956;11.064;2023-08-06T03:58:24;2.03;;;1.92;;
12224;SDS011;6175;50.956;11.064;2023-08-06T04:00:57;3.15;;;2.47;;
12224;SDS011;6175;50.956;11.064;2023-08-06T04:03:24;2.65;;;2.30;;
12224;SDS011;6175;50.956;11.064;2023-08-06T04:05:51;2.58;;;2.35;;
12224;SDS011;6175;50.956;11.064;2023-08-06T04:08:18;2.13;;;2.03;;
12224;SDS011;6175;50.956;11.064;2023-08-06T04:10:48;2.50;;;2.15;;
12224;SDS011;6175;50.956;11.064;2023-08-06T04:13:17;2.67;;;2.42;;
12224;SDS011;6175;50.956;11.064;2023-08-06T04:15:44;2.30;;;2.10;;
12224;SDS011;6175;50.956;11.064;2023-08-06T04:18:12;2.78;;;2.17;;
12224;SDS011;6175;50.956;11.064;2023-08-06T04:20:42;2.20;;;2.10;;
12224;SDS011;6175;50.956;11.064;2023-08-06T04:23:10;2.35;;;2.25;;
12224;SDS011;6175;50.956;11.064;2023-08-06T04:25:37;2.53;;;2.10;;
12224;SDS011;6175;50.956;11.064;2023-08-06T04:28:04;2.45;;;2.10;;
12224;SDS011;6175;50.956;11.064;2023-08-06T04:30:33;2.38;;;2.17;;
12224;SDS011;6175;50.956;11.064;2023-08-06T04:33:00;2.60;;;2.40;;
12224;SDS011;6175;50.956;11.064;2023-08-06T04:35:27;2.50;;;2.30;;
12224;SDS011;6175;50.956;11.064;2023-08-06T04:37:54;2.67;;;2.47;;
12224;SDS011;6175;50.956;11.064;2023-08-06T04:40:21;2.67;;;2.03;;
12224;SDS011;6175;50.956;11.064;2023-08-06T04:42:48;3.08;;;2.15;;
12224;SDS011;6175;50.956;11.064;2023-08-06T04:45:16;4.30;;;2.67;;
12224;SDS011;6175;50.956;11.064;2023-08-06T04:47:44;2.47;;;2.28;;
12224;SDS011;6175;50.956;11.064;2023-08-06T04:50:11;2.55;;;2.42;;
12224;SDS011;6175;50.956;11.064;2023-08-06T04:52:39;2.45;;;2.25;;
12224;SDS011;6175;50.956;11.064;2023-08-06T04:55:06;2.45;;;2.25;;
12224;SDS011;6175;50.956;11.064;2023-08-06T04:57:33;2.30;;;2.10;;
12224;SDS011;6175;50.956;11.064;2023-08-06T05:00:01;2.28;;;2.10;;
12224;SDS011;6175;50.956;11.064;2023-08-06T05:02:29;2.40;;;2.20;;
12224;SDS011;6175;50.956;11.064;2023-08-06T05:04:59;2.05;;;1.95;;
12224;SDS011;6175;50.956;11.064;2023-08-06T05:07:26;2.17;;;1.98;;
12224;SDS011;6175;50.956;11.064;2023-08-06T05:09:53;2.35;;;2.15;;
12224;SDS011;6175;50.956;11.064;2023-08-06T05:12:20;2.22;;;2.13;;
12224;SDS011;6175;50.956;11.064;2023-08-06T05:14:47;2.38;;;2.17;;
12224;SDS011;6175;50.956;11.064;2023-08-06T05:17:14;2.72;;;2.53;;
12224;SDS011;6175;50.956;11.064;2023-08-06T05:19:41;2.33;;;2.13;;
12224;SDS011;6175;50.956;11.064;2023-08-06T05:22:10;3.42;;;3.13;;
12224;SDS011;6175;50.956;11.064;2023-08-06T05:24:37;3.58;;;3.15;;
12224;SDS011;6175;50.956;11.064;2023-08-06T05:27:05;4.82;;;3.22;;
12224;SDS011;6175;50.956;11.064;2023-08-06T05:29:32;3.30;;;3.10;;
12224;SDS011;6175;50.956;11.064;2023-08-06T05:31:59;3.22;;;3.03;;
12224;SDS011;6175;50.956;11.064;2023-08-06T05:34:26;3.85;;;3.28;;
12224;SDS011;6175;50.956;11.064;2023-08-06T05:36:53;3.65;;;3.35;;
12224;SDS011;6175;50.956;11.064;2023-08-06T05:39:22;5.72;;;3.10;;
12224;SDS011;6175;50.956;11.064;2023-08-06T05:41:49;3.30;;;3.10;;
12224;SDS011;6175;50.956;11.064;2023-08-06T05:44:17;3.25;;;3.00;;
12224;SDS011;6175;50.956;11.064;2023-08-06T05:46:44;3.28;;;2.97;;
12224;SDS011;6175;50.956;11.064;2023-08-06T05:49:11;3.38;;;3.08;;
12224;SDS011;6175;50.956;11.064;2023-08-06T05:51:38;3.13;;;2.80;;
12224;SDS011;6175;50.956;11.064;2023-08-06T05:54:06;2.92;;;2.72;;
12224;SDS011;6175;50.956;11.064;2023-08-06T05:56:34;2.97;;;2.78;;
12224;SDS011;6175;50.956;11.064;2023-08-06T05:59:02;3.38;;;2.85;;
12224;SDS011;6175;50.956;11.064;2023-08-06T06:01:29;3.60;;;3.30;;
12224;SDS011;6175;50.956;11.064;2023-08-06T06:03:56;4.00;;;3.08;;
12224;SDS011;6175;50.956;11.064;2023-08-06T06:06:23;3.05;;;2.83;;
12224;SDS011;6175;50.956;11.064;2023-08-06T06:08:51;3.83;;;3.53;;
12224;SDS011;6175;50.956;11.064;2023-08-06T06:11:18;4.13;;;3.22;;
12224;SDS011;6175;50.956;11.064;2023-08-06T06:13:48;3.67;;;3.38;;
12224;SDS011;6175;50.956;11.064;2023-08-06T06:16:16;2.85;;;2.65;;
12224;SDS011;6175;50.956;11.064;2023-08-06T06:18:44;3.63;;;3.33;;
12224;SDS011;6175;50.956;11.064;2023-08-06T06:21:11;3.63;;;3.33;;
12224;SDS011;6175;50.956;11.064;2023-08-06T06:23:38;4.80;;;2.90;;
12224;SDS011;6175;50.956;11.064;2023-08-06T06:26:05;2.95;;;2.75;;
12224;SDS011;6175;50.956;11.064;2023-08-06T06:28:32;3.00;;;2.80;;
12224;SDS011;6175;50.956;11.064;2023-08-06T06:31:01;2.70;;;2.50;;
12224;SDS011;6175;50.956;11.064;2023-08-06T06:33:28;5.63;;;3.53;;
12224;SDS011;6175;50.956;11.064;2023-08-06T06:35:56;3.60;;;3.30;;
12224;SDS011;6175;50.956;11.064;2023-08-06T06:38:23;3.35;;;2.80;;
12224;SDS011;6175;50.956;11.064;2023-08-06T06:40:53;3.22;;;2.97;;
12224;SDS011;6175;50.956;11.064;2023-08-06T06:43:20;3.05;;;2.85;;
12224;SDS011;6175;50.956;11.064;2023-08-06T06:45:52;3.33;;;3.00;;
12224;SDS011;6175;50.956;11.064;2023-08-06T06:48:21;6.53;;;3.10;;
12224;SDS011;6175;50.956;11.064;2023-08-06T06:50:48;4.25;;;3.08;;
12224;SDS011;6175;50.956;11.064;2023-08-06T06:53:15;2.95;;;2.72;;
12224;SDS011;6175;50.956;11.064;2023-08-06T06:55:42;3.92;;;2.95;;
12224;SDS011;6175;50.956;11.064;2023-08-06T06:58:10;4.00;;;3.20;;
12224;SDS011;6175;50.956;11.064;2023-08-06T07:00:37;3.67;;;2.85;;
12224;SDS011;6175;50.956;11.064;2023-08-06T07:03:04;5.03;;;2.97;;
12224;SDS011;6175;50.956;11.064;2023-08-06T07:05:32;3.25;;;2.95;;
12224;SDS011;6175;50.956;11.064;2023-08-06T07:08:00;3.20;;;3.00;;
12224;SDS011;6175;50.956;11.064;2023-08-06T07:10:27;3.20;;;2.90;;
12224;SDS011;6175;50.956;11.064;2023-08-06T07:12:54;3.42;;;2.92;;
12224;SDS011;6175;50.956;11.064;2023-08-06T07:15:21;3.10;;;2.80;;
12224;SDS011;6175;50.956;11.064;2023-08-06T07:17:48;3.13;;;2.92;;
12224;SDS011;6175;50.956;11.064;2023-08-06T07:20:15;3.20;;;2.90;;
12224;SDS011;6175;50.956;11.064;2023-08-06T07:22:44;3.20;;;2.97;;
12224;SDS011;6175;50.956;11.064;2023-08-06T07:25:12;3.55;;;2.50;;
12224;SDS011;6175;50.956;11.064;2023-08-06T07:27:39;3.25;;;2.90;;
12224;SDS011;6175;50.956;11.064;2023-08-06T07:30:06;3.00;;;2.70;;
12224;SDS011;6175;50.956;11.064;2023-08-06T07:32:35;3.20;;;3.00;;
12224;SDS011;6175;50.956;11.064;2023-08-06T07:35:02;2.90;;;2.70;;
12224;SDS011;6175;50.956;11.064;2023-08-06T07:37:29;4.45;;;3.10;;
12224;SDS011;6175;50.956;11.064;2023-08-06T07:39:58;3.30;;;2.75;;
12224;SDS011;6175;50.956;11.064;2023-08-06T07:42:25;4.15;;;2.78;;
12224;SDS011;6175;50.956;11.064;2023-08-06T07:44:53;4.63;;;2.85;;
12224;SDS011;6175;50.956;11.064;2023-08-06T07:47:21;3.00;;;2.80;;
12224;SDS011;6175;50.956;11.064;2023-08-06T07:49:49;2.85;;;2.65;;
12224;SDS011;6175;50.956;11.064;2023-08-06T07:52:16;2.67;;;2.47;;
12224;SDS011;6175;50.956;11.064;2023-08-06T07:54:43;3.22;;;2.92;;
12224;SDS011;6175;50.956;11.064;2023-08-06T07:57:12;3.40;;;2.50;;
12224;SDS011;6175;50.956;11.064;2023-08-06T07:59:40;2.70;;;2.40;;
12224;SDS011;6175;50.956;11.064;2023-08-06T08:02:07;3.00;;;2.60;;
12224;SDS011;6175;50.956;11.064;2023-08-06T08:04:34;2.95;;;2.65;;
12224;SDS011;6175;50.956;11.064;2023-08-06T08:07:01;3.15;;;2.47;;
12224;SDS011;6175;50.956;11.064;2023-08-06T08:09:29;2.50;;;2.30;;
12224;SDS011;6175;50.956;11.064;2023-08-06T08:11:56;6.30;;;2.67;;
12224;SDS011;6175;50.956;11.064;2023-08-06T08:14:27;2.70;;;2.38;;
12224;SDS011;6175;50.956;11.064;2023-08-06T08:17:00;2.30;;;2.10;;
12224;SDS011;6175;50.956;11.064;2023-08-06T08:19:27;3.83;;;2.60;;
12224;SDS011;6175;50.956;11.064;2023-08-06T08:21:54;2.40;;;2.20;;
12224;SDS011;6175;50.956;11.064;2023-08-06T08:24:21;3.15;;;2.58;;
12224;SDS011;6175;50.956;11.064;2023-08-06T08:26:49;2.42;;;2.22;;
12224;SDS011;6175;50.956;11.064;2023-08-06T08:29:17;2.42;;;2.22;;
12224;SDS011;6175;50.956;11.064;2023-08-06T08:31:45;2.47;;;2.28;;
12224;SDS011;6175;50.956;11.064;2023-08-06T08:34:14;2.45;;;2.25;;
12224;SDS011;6175;50.956;11.064;2023-08-06T08:36:41;2.63;;;2.33;;
12224;SDS011;6175;50.956;11.064;2023-08-06T08:39:09;2.40;;;2.13;;
12224;SDS011;6175;50.956;11.064;2023-08-06T08:41:37;3.15;;;2.00;;
12224;SDS011;6175;50.956;11.064;2023-08-06T08:44:05;3.00;;;2.33;;
12224;SDS011;6175;50.956;11.064;2023-08-06T08:46:34;2.30;;;2.10;;
12224;SDS011;6175;50.956;11.064;2023-08-06T08:49:04;3.03;;;2.20;;
12224;SDS011;6175;50.956;11.064;2023-08-06T08:51:32;1.90;;;1.80;;
12224;SDS011;6175;50.956;11.064;2023-08-06T08:54:00;2.20;;;2.00;;
12224;SDS011;6175;50.956;11.064;2023-08-06T08:56:29;2.22;;;1.98;;
12224;SDS011;6175;50.956;11.064;2023-08-06T08:58:57;3.28;;;2.28;;
12224;SDS011;6175;50.956;11.064;2023-08-06T09:01:24;2.75;;;2.10;;
12224;SDS011;6175;50.956;11.064;2023-08-06T09:03:52;1.85;;;1.75;;
12224;SDS011;6175;50.956;11.064;2023-08-06T09:06:22;2.15;;;1.95;;
12224;SDS011;6175;50.956;11.064;2023-08-06T09:08:54;4.00;;;2.20;;
12224;SDS011;6175;50.956;11.064;2023-08-06T09:11:27;1.98;;;1.85;;
12224;SDS011;6175;50.956;11.064;2023-08-06T09:13:56;2.40;;;1.98;;
12224;SDS011;6175;50.956;11.064;2023-08-06T09:16:24;2.38;;;2.15;;
12224;SDS011;6175;50.956;11.064;2023-08-06T09:18:52;2.55;;;2.30;;
12224;SDS011;6175;50.956;11.064;2023-08-06T09:21:19;1.70;;;1.60;;
12224;SDS011;6175;50.956;11.064;2023-08-06T09:23:47;2.10;;;1.95;;
12224;SDS011;6175;50.956;11.064;2023-08-06T09:26:14;2.05;;;1.90;;
12224;SDS011;6175;50.956;11.064;2023-08-06T09:28:41;1.90;;;1.80;;
12224;SDS011;6175;50.956;11.064;2023-08-06T09:31:09;2.50;;;2.05;;
12224;SDS011;6175;50.956;11.064;2023-08-06T09:33:37;2.42;;;2.22;;
12224;SDS011;6175;50.956;11.064;2023-08-06T09:36:08;1.83;;;1.73;;
12224;SDS011;6175;50.956;11.064;2023-08-06T09:38:37;3.05;;;1.98;;
12224;SDS011;6175;50.956;11.064;2023-08-06T09:41:06;3.58;;;2.58;;
12224;SDS011;6175;50.956;11.064;2023-08-06T09:43:40;2.55;;;2.13;;
12224;SDS011;6175;50.956;11.064;2023-08-06T09:46:11;2.78;;;2.08;;
12224;SDS011;6175;50.956;11.064;2023-08-06T09:48:44;3.42;;;2.55;;
12224;SDS011;6175;50.956;11.064;2023-08-06T09:51:11;2.20;;;2.00;;
12224;SDS011;6175;50.956;11.064;2023-08-06T09:53:40;3.35;;;2.20;;
12224;SDS011;6175;50.956;11.064;2023-08-06T09:56:08;1.95;;;1.75;;
12224;SDS011;6175;50.956;11.064;2023-08-06T09:58:36;2.00;;;1.55;;
12224;SDS011;6175;50.956;11.064;2023-08-06T10:01:04;1.60;;;1.50;;
12224;SDS011;6175;50.956;11.064;2023-08-06T10:03:31;2.28;;;1.30;;
12224;SDS011;6175;50.956;11.064;2023-08-06T10:05:59;1.85;;;1.60;;
12224;SDS011;6175;50.956;11.064;2023-08-06T10:08:31;3.00;;;1.98;;
12224;SDS011;6175;50.956;11.064;2023-08-06T10:10:58;1.85;;;1.75;;
12224;SDS011;6175;50.956;11.064;2023-08-06T10:13:26;3.85;;;1.80;;
12224;SDS011;6175;50.956;11.064;2023-08-06T10:15:54;2.17;;;1.30;;
12224;SDS011;6175;50.956;11.064;2023-08-06T10:18:21;1.90;;;1.73;;
12224;SDS011;6175;50.956;11.064;2023-08-06T10:20:48;1.58;;;1.48;;
12224;SDS011;6175;50.956;11.064;2023-08-06T10:23:15;1.77;;;1.50;;
12224;SDS011;6175;50.956;11.064;2023-08-06T10:25:45;2.38;;;1.88;;
12224;SDS011;6175;50.956;11.064;2023-08-06T10:28:21;1.67;;;1.55;;
12224;SDS011;6175;50.956;11.064;2023-08-06T10:30:50;1.45;;;1.20;;
12224;SDS011;6175;50.956;11.064;2023-08-06T10:33:18;1.88;;;1.27;;
12224;SDS011;6175;50.956;11.064;2023-08-06T10:35:47;1.55;;;1.35;;
12224;SDS011;6175;50.956;11.064;2023-08-06T10:38:15;2.30;;;1.30;;
12224;SDS011;6175;50.956;11.064;2023-08-06T10:40:48;1.75;;;1.45;;
12224;SDS011;6175;50.956;11.064;2023-08-06T10:43:24;1.80;;;1.40;;
12224;SDS011;6175;50.956;11.064;2023-08-06T10:45:54;3.55;;;1.40;;
12224;SDS011;6175;50.956;11.064;2023-08-06T10:48:30;1.58;;;1.45;;
12224;SDS011;6175;50.956;11.064;2023-08-06T10:51:01;2.30;;;1.40;;
12224;SDS011;6175;50.956;11.064;2023-08-06T10:53:28;1.50;;;1.40;;
12224;SDS011;6175;50.956;11.064;2023-08-06T10:55:55;2.42;;;1.42;;
12224;SDS011;6175;50.956;11.064;2023-08-06T10:58:23;1.58;;;1.35;;
12224;SDS011;6175;50.956;11.064;2023-08-06T11:00:50;3.63;;;1.75;;
12224;SDS011;6175;50.956;11.064;2023-08-06T11:03:18;1.98;;;1.40;;
12224;SDS011;6175;50.956;11.064;2023-08-06T11:05:48;1.40;;;1.27;;
12224;SDS011;6175;50.956;11.064;2023-08-06T11:08:22;1.30;;;1.20;;
12224;SDS011;6175;50.956;11.064;2023-08-06T11:10:50;1.63;;;1.50;;
12224;SDS011;6175;50.956;11.064;2023-08-06T11:13:17;2.45;;;1.40;;
12224;SDS011;6175;50.956;11.064;2023-08-06T11:15:44;2.78;;;1.48;;
12224;SDS011;6175;50.956;11.064;2023-08-06T11:18:11;2.80;;;1.33;;
12224;SDS011;6175;50.956;11.064;2023-08-06T11:20:40;2.15;;;1.50;;
12224;SDS011;6175;50.956;11.064;2023-08-06T11:23:09;1.77;;;1.30;;
12224;SDS011;6175;50.956;11.064;2023-08-06T11:25:36;2.97;;;1.50;;
12224;SDS011;6175;50.956;11.064;2023-08-06T11:28:03;2.05;;;1.58;;
12224;SDS011;6175;50.956;11.064;2023-08-06T11:30:31;1.25;;;1.10;;
12224;SDS011;6175;50.956;11.064;2023-08-06T11:32:58;1.48;;;1.17;;
12224;SDS011;6175;50.956;11.064;2023-08-06T11:35:25;1.33;;;1.20;;
12224;SDS011;6175;50.956;11.064;2023-08-06T11:37:54;1.45;;;1.35;;
12224;SDS011;6175;50.956;11.064;2023-08-06T11:40:22;1.40;;;1.20;;
12224;SDS011;6175;50.956;11.064;2023-08-06T11:42:49;2.88;;;1.63;;
12224;SDS011;6175;50.956;11.064;2023-08-06T11:45:21;1.50;;;1.38;;
12224;SDS011;6175;50.956;11.064;2023-08-06T11:47:49;1.67;;;1.45;;
12224;SDS011;6175;50.956;11.064;2023-08-06T11:50:23;1.50;;;1.40;;
12224;SDS011;6175;50.956;11.064;2023-08-06T11:52:54;1.88;;;1.45;;
12224;SDS011;6175;50.956;11.064;2023-08-06T11:55:22;4.20;;;1.40;;
12224;SDS011;6175;50.956;11.064;2023-08-06T11:57:50;2.17;;;1.20;;
12224;SDS011;6175;50.956;11.064;2023-08-06T12:00:17;1.30;;;1.20;;
12224;SDS011;6175;50.956;11.064;2023-08-06T12:02:47;1.45;;;1.30;;
12224;SDS011;6175;50.956;11.064;2023-08-06T12:05:17;2.40;;;1.58;;
12224;SDS011;6175;50.956;11.064;2023-08-06T12:07:46;1.27;;;1.10;;
12224;SDS011;6175;50.956;11.064;2023-08-06T12:10:15;1.40;;;1.08;;
12224;SDS011;6175;50.956;11.064;2023-08-06T12:12:44;4.18;;;1.58;;
12224;SDS011;6175;50.956;11.064;2023-08-06T12:15:11;1.15;;;1.10;;
12224;SDS011;6175;50.956;11.064;2023-08-06T12:17:39;2.25;;;1.23;;
12224;SDS011;6175;50.956;11.064;2023-08-06T12:20:06;1.50;;;1.40;;
12224;SDS011;6175;50.956;11.064;2023-08-06T12:22:34;1.73;;;1.23;;
12224;SDS011;6175;50.956;11.064;2023-08-06T12:25:03;1.52;;;1.42;;
12224;SDS011;6175;50.956;11.064;2023-08-06T12:27:34;2.63;;;1.80;;
12224;SDS011;6175;50.956;11.064;2023-08-06T12:30:02;2.28;;;1.75;;
12224;SDS011;6175;50.956;11.064;2023-08-06T12:32:29;2.78;;;1.80;;
12224;SDS011;6175;50.956;11.064;2023-08-06T12:34:57;2.20;;;1.73;;
12224;SDS011;6175;50.956;11.064;2023-08-06T12:37:24;2.22;;;1.70;;
12224;SDS011;6175;50.956;11.064;2023-08-06T12:39:51;2.85;;;1.50;;
12224;SDS011;6175;50.956;11.064;2023-08-06T12:42:18;1.75;;;1.65;;
12224;SDS011;6175;50.956;11.064;2023-08-06T12:44:48;1.50;;;1.40;;
12224;SDS011;6175;50.956;11.064;2023-08-06T12:47:15;2.50;;;1.70;;
12224;SDS011;6175;50.956;11.064;2023-08-06T12:49:43;1.63;;;1.50;;
12224;SDS011;6175;50.956;11.064;2023-08-06T12:52:10;1.85;;;1.42;;
12224;SDS011;6175;50.956;11.064;2023-08-06T12:54:40;1.73;;;1.38;;
12224;SDS011;6175;50.956;11.064;2023-08-06T12:57:07;2.72;;;1.80;;
12224;SDS011;6175;50.956;11.064;2023-08-06T12:59:34;2.10;;;1.90;;
12224;SDS011;6175;50.956;11.064;2023-08-06T13:02:03;2.45;;;1.90;;
12224;SDS011;6175;50.956;11.064;2023-08-06T13:04:30;4.38;;;3.30;;
12224;SDS011;6175;50.956;11.064;2023-08-06T13:06:59;3.88;;;3.15;;
12224;SDS011;6175;50.956;11.064;2023-08-06T13:09:26;3.10;;;2.20;;
12224;SDS011;6175;50.956;11.064;2023-08-06T13:11:54;1.92;;;1.77;;
12224;SDS011;6175;50.956;11.064;2023-08-06T13:14:22;3.63;;;1.70;;
12224;SDS011;6175;50.956;11.064;2023-08-06T13:16:50;3.00;;;1.83;;
12224;SDS011;6175;50.956;11.064;2023-08-06T13:19:18;2.55;;;1.60;;
12224;SDS011;6175;50.956;11.064;2023-08-06T13:21:58;1.73;;;1.23;;
12224;SDS011;6175;50.956;11.064;2023-08-06T13:24:26;1.23;;;1.10;;
12224;SDS011;6175;50.956;11.064;2023-08-06T13:26:53;1.17;;;1.08;;
12224;SDS011;6175;50.956;11.064;2023-08-06T13:29:20;2.67;;;1.25;;
12224;SDS011;6175;50.956;11.064;2023-08-06T13:31:48;1.10;;;0.98;;
12224;SDS011;6175;50.956;11.064;2023-08-06T13:34:15;0.82;;;0.80;;
12224;SDS011;6175;50.956;11.064;2023-08-06T13:36:43;3.05;;;1.27;;
12224;SDS011;6175;50.956;11.064;2023-08-06T13:39:11;1.70;;;1.60;;
12224;SDS011;6175;50.956;11.064;2023-08-06T13:41:41;1.20;;;1.10;;
12224;SDS011;6175;50.956;11.064;2023-08-06T13:44:08;1.02;;;0.90;;
12224;SDS011;6175;50.956;11.064;2023-08-06T13:46:35;1.60;;;1.15;;
12224;SDS011;6175;50.956;11.064;2023-08-06T13:49:03;0.88;;;0.88;;
12224;SDS011;6175;50.956;11.064;2023-08-06T13:51:30;2.22;;;0.98;;
12224;SDS011;6175;50.956;11.064;2023-08-06T13:54:00;1.73;;;0.98;;
12224;SDS011;6175;50.956;11.064;2023-08-06T13:56:27;0.63;;;0.63;;
12224;SDS011;6175;50.956;11.064;2023-08-06T13:58:54;0.90;;;0.80;;
12224;SDS011;6175;50.956;11.064;2023-08-06T14:01:22;1.08;;;0.98;;
12224;SDS011;6175;50.956;11.064;2023-08-06T14:03:49;1.13;;;0.82;;
12224;SDS011;6175;50.956;11.064;2023-08-06T14:06:16;1.23;;;0.75;;
12224;SDS011;6175;50.956;11.064;2023-08-06T14:08:43;0.80;;;0.80;;
12224;SDS011;6175;50.956;11.064;2023-08-06T14:11:12;1.70;;;0.88;;
12224;SDS011;6175;50.956;11.064;2023-08-06T14:13:39;1.45;;;0.80;;
12224;SDS011;6175;50.956;11.064;2023-08-06T14:16:06;0.60;;;0.60;;
12224;SDS011;6175;50.956;11.064;2023-08-06T14:18:33;0.85;;;0.82;;
12224;SDS011;6175;50.956;11.064;2023-08-06T14:21:02;0.60;;;0.60;;
12224;SDS011;6175;50.956;11.064;2023-08-06T14:23:30;0.65;;;0.57;;
12224;SDS011;6175;50.956;11.064;2023-08-06T14:25:57;0.30;;;0.30;;
12224;SDS011;6175;50.956;11.064;2023-08-06T14:28:25;0.40;;;0.40;;
12224;SDS011;6175;50.956;11.064;2023-08-06T14:30:53;0.40;;;0.40;;
12224;SDS011;6175;50.956;11.064;2023-08-06T14:33:20;0.93;;;0.50;;
12224;SDS011;6175;50.956;11.064;2023-08-06T14:35:48;0.47;;;0.40;;
12224;SDS011;6175;50.956;11.064;2023-08-06T14:38:15;0.38;;;0.25;;
12224;SDS011;6175;50.956;11.064;2023-08-06T14:40:43;0.40;;;0.40;;
12224;SDS011;6175;50.956;11.064;2023-08-06T14:43:10;0.28;;;0.28;;
12224;SDS011;6175;50.956;11.064;2023-08-06T14:45:39;0.80;;;0.50;;
12224;SDS011;6175;50.956;11.064;2023-08-06T14:48:06;0.85;;;0.50;;
12224;SDS011;6175;50.956;11.064;2023-08-06T14:50:33;0.50;;;0.50;;
12224;SDS011;6175;50.956;11.064;2023-08-06T14:53:01;0.50;;;0.50;;